Time;durP1;ratioP1;P1;durP2;ratioP2;P2;SDS_P1;SDS_P2;PMS_P1;PMS_P2;Temp;Humidity;BMP_temperature;BMP_pressure;BME280_temperature;BME280_humidity;BME280_pressure;Samples;Min_cycle;Max_cycle;Signal;HPM_P1;HPM_P2
2022/06/22 00:55:50;;;;;;;10.50;1.67;;;;;;;21.30;47.40;94228.06;6030467;22;20010;-85
2022/06/22 00:58:21;;;;;;;8.43;1.52;;;;;;;21.32;48.25;94231.19;5001116;28;20409;-85
2022/06/22 01:01:01;;;;;;;7.53;1.90;;;;;;;21.35;49.21;94232.41;5019315;28;20030;-84
2022/06/22 01:03:33;;;;;;;9.25;1.90;;;;;;;21.17;48.73;94231.91;5012845;28;20068;-85
2022/06/22 01:06:28;;;;;;;5.60;1.40;;;;;;;21.15;48.37;94229.56;5019260;28;20438;-85
2022/06/22 01:09:03;;;;;;;8.50;1.85;;;;;;;20.89;48.75;94236.09;5018799;28;20026;-84
2022/06/22 01:14:45;;;;;;;4.90;1.92;;;;;;;20.95;49.28;94230.53;4995166;28;20041;-85
2022/06/22 01:17:21;;;;;;;8.45;2.20;;;;;;;21.00;49.53;94233.72;5001575;28;20033;-85
2022/06/22 01:20:05;;;;;;;7.40;1.77;;;;;;;21.02;48.33;94228.06;5001237;28;20099;-85
2022/06/22 01:22:51;;;;;;;7.40;1.77;;;;;;;21.05;48.65;94235.38;5001577;28;20346;-84
2022/06/22 01:25:30;;;;;;;5.38;1.67;;;;;;;21.02;50.29;94234.16;5019072;28;20030;-85
2022/06/22 01:27:55;;;;;;;8.85;1.63;;;;;;;21.00;49.77;94241.72;5018930;28;20472;-85
2022/06/22 01:30:37;;;;;;;11.30;2.03;;;;;;;20.94;51.55;94239.63;5001315;28;20077;-85
2022/06/22 01:33:24;;;;;;;9.00;2.28;;;;;;;20.73;53.34;94243.16;4982108;28;20458;-85
2022/06/22 01:35:53;;;;;;;14.73;2.70;;;;;;;20.56;56.21;94244.19;4981875;28;20049;-87
2022/06/22 01:38:27;;;;;;;13.45;2.40;;;;;;;20.51;57.25;94239.88;4981522;28;20022;-86
2022/06/22 01:41:05;;;;;;;21.15;2.33;;;;;;;20.62;57.81;94240.97;4981690;28;20116;-85
2022/06/22 01:43:37;;;;;;;8.50;2.38;;;;;;;20.65;57.64;94239.50;4981641;28;20504;-87
2022/06/22 01:46:14;;;;;;;18.15;2.50;;;;;;;20.55;60.60;94232.75;4982224;28;20034;-87
2022/06/22 01:48:54;;;;;;;13.13;2.60;;;;;;;20.58;63.30;94233.97;4998274;28;20030;-87
2022/06/22 01:51:29;;;;;;;11.40;2.60;;;;;;;20.72;62.54;94242.41;4981973;28;20109;-87
2022/06/22 01:54:21;;;;;;;10.02;2.22;;;;;;;20.78;58.95;94240.28;4965795;28;20323;-87
2022/06/22 01:57:03;;;;;;;11.38;2.75;;;;;;;20.76;61.30;94231.88;4999014;28;20453;-87
2022/06/22 01:59:48;;;;;;;13.82;2.45;;;;;;;20.62;63.88;94237.53;4981919;28;20034;-86
2022/06/22 02:02:18;;;;;;;6.38;2.42;;;;;;;20.61;64.63;94235.97;4981558;28;20069;-87
2022/06/22 02:05:17;;;;;;;11.07;2.33;;;;;;;20.57;66.88;94235.84;4981603;28;20030;-87
2022/06/22 02:07:58;;;;;;;14.05;2.80;;;;;;;20.45;69.54;94235.88;4981420;28;20034;-87
2022/06/22 02:10:47;;;;;;;10.07;2.35;;;;;;;20.34;73.21;94238.19;4981412;28;20026;-87
2022/06/22 02:13:28;;;;;;;11.63;2.30;;;;;;;20.53;73.99;94232.31;4981390;28;20060;-88
2022/06/22 02:16:16;;;;;;;10.35;2.20;;;;;;;20.77;69.34;94236.84;4998397;28;20041;-87
2022/06/22 02:18:57;;;;;;;7.45;2.78;;;;;;;20.63;67.96;94225.75;4998608;28;20412;-88
2022/06/22 02:21:23;;;;;;;9.57;2.40;;;;;;;20.54;67.59;94220.56;4980998;28;20180;-87
2022/06/22 02:23:56;;;;;;;9.93;2.67;;;;;;;20.55;70.27;94226.69;4981217;28;20037;-87
2022/06/22 02:26:35;;;;;;;11.00;2.55;;;;;;;20.49;72.47;94223.47;4965381;28;20026;-87
2022/06/22 02:29:01;;;;;;;15.25;3.42;;;;;;;20.35;75.33;94221.13;4980885;28;20328;-87
2022/06/22 02:31:27;;;;;;;15.82;2.50;;;;;;;20.65;71.36;94215.56;4984689;28;20037;-87
2022/06/22 02:33:54;;;;;;;11.38;2.63;;;;;;;20.56;73.56;94215.69;4984535;28;20072;-85
2022/06/22 02:36:20;;;;;;;12.95;2.60;;;;;;;20.42;77.63;94210.72;4984192;28;20168;-85
2022/06/22 02:38:48;;;;;;;7.65;2.28;;;;;;;20.59;75.83;94219.56;5000005;28;20041;-87
2022/06/22 02:46:45;;;;;;;10.15;2.63;;;;;;;20.06;78.03;94210.38;5003032;28;20107;-87
2022/06/22 02:49:32;;;;;;;11.80;2.70;;;;;;;20.26;79.22;94201.84;5000071;28;20033;-87
2022/06/22 02:51:59;;;;;;;7.53;2.60;;;;;;;20.34;79.42;94211.59;4984001;28;20029;-87
2022/06/22 02:54:32;;;;;;;6.72;2.40;;;;;;;20.47;77.53;94204.41;5000219;28;20030;-87
2022/06/22 02:57:04;;;;;;;9.98;2.72;;;;;;;20.49;78.14;94210.16;5000215;28;20188;-86
2022/06/22 02:59:30;;;;;;;8.20;2.63;;;;;;;20.38;75.75;94196.53;4983724;28;20030;-85
2022/06/22 03:01:58;;;;;;;8.40;2.65;;;;;;;20.18;76.63;94190.22;5017465;28;20042;-87
2022/06/22 03:04:24;;;;;;;9.30;2.45;;;;;;;20.30;74.03;94195.53;4984004;28;20390;-87
2022/06/22 03:06:51;;;;;;;9.93;2.60;;;;;;;20.38;76.00;94196.53;5000024;28;20029;-87
2022/06/22 03:09:17;;;;;;;6.32;2.70;;;;;;;20.11;81.38;94193.44;4983515;28;20040;-87
2022/06/22 03:11:45;;;;;;;7.15;2.17;;;;;;;20.12;78.62;94187.00;4983906;28;20029;-87
2022/06/22 03:14:25;;;;;;;8.57;2.58;;;;;;;20.34;77.46;94198.28;4984164;28;20025;-88
2022/06/22 03:17:14;;;;;;;9.30;2.60;;;;;;;20.31;80.09;94201.63;4999908;28;20034;-87
2022/06/22 03:19:45;;;;;;;6.95;2.85;;;;;;;20.05;82.80;94200.06;4999412;28;20034;-88
2022/06/22 03:22:16;;;;;;;10.75;2.80;;;;;;;19.97;81.26;94199.06;4999593;28;20117;-88
2022/06/22 03:24:52;;;;;;;8.00;2.35;;;;;;;19.88;83.38;94209.00;4999594;28;20038;-87
2022/06/22 03:27:21;;;;;;;10.38;2.28;;;;;;;19.92;82.34;94210.69;4999548;28;20081;-88
2022/06/22 03:30:02;;;;;;;7.15;2.55;;;;;;;20.23;80.09;94215.81;4983022;28;20449;-87
2022/06/22 03:32:46;;;;;;;8.63;2.53;;;;;;;19.94;85.43;94206.91;4999684;28;20025;-87
2022/06/22 03:35:21;;;;;;;8.13;2.78;;;;;;;19.99;87.21;94222.66;4999745;28;20452;-87
2022/06/22 03:37:49;;;;;;;7.00;2.60;;;;;;;19.99;85.46;94210.13;4983308;28;20057;-87
2022/06/22 03:40:20;;;;;;;7.57;2.28;;;;;;;20.21;81.30;94210.84;4999372;28;20462;-88
2022/06/22 03:42:51;;;;;;;7.18;2.45;;;;;;;19.95;85.95;94206.59;4999760;28;20419;-87
2022/06/22 03:45:24;;;;;;;6.55;2.63;;;;;;;19.71;88.81;94205.41;4983455;28;20075;-87
2022/06/22 03:48:01;;;;;;;10.10;2.42;;;;;;;19.80;84.65;94199.25;4999530;28;20026;-87
2022/06/22 03:50:32;;;;;;;10.10;2.67;;;;;;;19.87;84.94;94200.25;5016697;28;20423;-87
2022/06/22 03:53:17;;;;;;;16.10;2.83;;;;;;;19.80;85.90;94196.59;4999339;28;20032;-87
2022/06/22 03:55:45;;;;;;;11.20;2.60;;;;;;;19.63;93.67;94193.00;4999645;28;20112;-88
2022/06/22 03:58:11;;;;;;;14.18;2.75;;;;;;;19.85;90.27;94197.16;4999144;28;20033;-88
2022/06/22 04:00:39;;;;;;;7.00;2.60;;;;;;;20.10;94.02;94183.91;4983305;28;20506;-87
2022/06/22 04:03:05;;;;;;;7.97;2.50;;;;;;;19.98;92.99;94189.22;5003256;28;20044;-87
2022/06/22 04:05:55;;;;;;;12.73;2.88;;;;;;;20.38;84.74;94182.44;5002103;28;20347;-87
2022/06/22 04:08:25;;;;;;;10.82;2.60;;;;;;;20.52;80.91;94179.44;4979682;28;20399;-87
2022/06/22 04:11:09;;;;;;;7.38;2.40;;;;;;;20.80;81.14;94184.81;4967593;28;20034;-87
2022/06/22 04:13:47;;;;;;;14.80;2.70;;;;;;;20.68;79.41;94190.16;4983170;28;20088;-88
2022/06/22 04:16:22;;;;;;;12.20;2.50;;;;;;;20.26;89.56;94183.25;4983371;28;20514;-88
2022/06/22 04:19:13;;;;;;;7.63;2.50;;;;;;;20.33;83.98;94194.88;4983457;28;20037;-87
2022/06/22 04:21:44;;;;;;;8.85;2.95;;;;;;;20.98;85.75;94198.66;4967603;28;20427;-87
2022/06/22 04:24:17;;;;;;;7.93;2.38;;;;;;;21.16;83.16;94193.06;4983319;28;20034;-85
2022/06/22 04:26:48;;;;;;;14.73;2.97;;;;;;;20.51;85.63;94188.53;4983131;28;20037;-87
2022/06/22 04:29:35;;;;;;;14.07;2.75;;;;;;;20.90;86.30;94186.25;4983037;28;20462;-88
2022/06/22 04:32:11;;;;;;;5.25;2.38;;;;;;;21.25;79.36;94183.03;4967393;28;20080;-88
2022/06/22 04:34:41;;;;;;;4.70;2.53;;;;;;;21.56;77.32;94180.75;4967427;28;20049;-88
2022/06/22 04:37:19;;;;;;;20.42;2.60;;;;;;;21.59;83.28;94188.06;4983100;28;20031;-88
2022/06/22 04:39:49;;;;;;;9.80;2.70;;;;;;;21.96;80.55;94195.88;4983357;28;20026;-90
2022/06/22 04:42:15;;;;;;;7.38;2.63;;;;;;;22.23;84.20;94198.00;4966832;28;20077;-89
2022/06/22 04:44:47;;;;;;;7.22;2.53;;;;;;;22.31;84.13;94199.72;4983272;28;20034;-88
2022/06/22 04:47:25;;;;;;;5.77;2.60;;;;;;;22.06;84.24;94199.16;4983135;28;20049;-90
2022/06/22 04:49:55;;;;;;;6.28;2.42;;;;;;;22.14;78.47;94198.97;4966755;28;20085;-89
2022/06/22 04:52:29;;;;;;;5.38;2.30;;;;;;;22.27;77.50;94198.88;4984898;28;20486;-90
2022/06/22 04:54:57;;;;;;;5.45;2.40;;;;;;;21.87;78.82;94197.94;5002166;28;20088;-90
2022/06/22 04:57:55;;;;;;;12.52;2.75;;;;;;;21.21;87.31;94195.47;4985858;28;20040;-91
2022/06/22 05:00:34;;;;;;;7.07;2.53;;;;;;;21.40;91.27;94202.06;4986183;28;20442;-85
2022/06/22 05:03:05;;;;;;;9.30;2.38;;;;;;;21.45;97.93;94199.16;5002109;28;20390;-85
2022/06/22 05:05:38;;;;;;;8.30;2.45;;;;;;;21.61;96.18;94199.19;5001932;28;20107;-85
2022/06/22 05:08:24;;;;;;;11.07;2.47;;;;;;;20.93;99.60;94198.13;5001855;28;20040;-85
2022/06/22 05:10:51;;;;;;;7.93;2.40;;;;;;;20.66;100.00;94197.72;5001718;28;20026;-87
2022/06/22 05:13:23;;;;;;;9.57;2.50;;;;;;;21.40;100.00;94207.41;4985113;28;20424;-85
2022/06/22 05:15:52;;;;;;;8.15;2.40;;;;;;;21.73;100.00;94214.38;4985753;28;20453;-88
2022/06/22 05:18:21;;;;;;;7.78;2.30;;;;;;;22.07;97.30;94214.81;4985777;28;20034;-85
2022/06/22 05:21:11;;;;;;;10.00;2.58;;;;;;;22.03;97.83;94217.41;5001520;28;20033;-85
2022/06/22 05:23:37;;;;;;;10.73;2.40;;;;;;;21.77;91.76;94214.47;5001784;28;20030;-85
2022/06/22 05:26:05;;;;;;;7.28;2.50;;;;;;;21.68;91.34;94217.28;5001555;28;20227;-85
2022/06/22 05:28:35;;;;;;;7.78;2.63;;;;;;;21.40;94.39;94220.72;5001824;28;20083;-86
2022/06/22 05:31:07;;;;;;;6.13;2.10;;;;;;;21.79;93.10;94226.31;5018798;28;20030;-86
2022/06/22 05:33:34;;;;;;;10.57;2.22;;;;;;;22.40;75.71;94223.56;4984501;28;20048;-84
2022/06/22 05:36:08;;;;;;;8.23;2.55;;;;;;;22.73;75.95;94225.88;5001036;28;20038;-85
2022/06/22 05:38:36;;;;;;;7.05;2.30;;;;;;;22.98;100.00;94230.19;4984986;28;20038;-85
2022/06/22 05:41:04;;;;;;;5.15;2.30;;;;;;;23.21;100.00;94218.81;5001055;28;20030;-85
2022/06/22 05:43:32;;;;;;;9.63;2.70;;;;;;;23.47;100.00;94228.13;5001160;28;20038;-85
2022/06/22 05:45:58;;;;;;;6.93;2.28;;;;;;;22.75;100.00;94236.22;5001280;28;20030;-85
2022/06/22 05:48:25;;;;;;;11.27;2.90;;;;;;;22.09;100.00;94238.47;4985440;28;20040;-85
2022/06/22 05:51:00;;;;;;;8.00;2.30;;;;;;;22.19;100.00;94237.97;4995248;28;20033;-84
2022/06/22 05:53:49;;;;;;;8.52;2.38;;;;;;;21.50;100.00;94233.53;4981795;28;20121;-85
2022/06/22 05:56:47;;;;;;;8.93;2.40;;;;;;;22.79;100.00;94238.94;4994112;28;20398;-85
2022/06/22 05:59:22;;;;;;;7.45;2.80;;;;;;;23.88;100.00;94236.50;5000823;28;20394;-84
2022/06/22 06:02:03;;;;;;;7.13;2.33;;;;;;;23.75;100.00;94240.47;5018218;28;20116;-84
2022/06/22 06:04:47;;;;;;;6.22;2.20;;;;;;;24.60;100.00;94244.16;5000843;28;20131;-85
2022/06/22 06:07:13;;;;;;;10.38;2.45;;;;;;;24.82;99.91;94237.25;5000959;28;20040;-84
2022/06/22 06:09:38;;;;;;;7.50;2.45;;;;;;;25.08;95.22;94241.00;5018363;28;20034;-84
2022/06/22 06:12:13;;;;;;;8.10;2.50;;;;;;;24.37;100.00;94234.25;4984918;28;20034;-86
2022/06/22 06:14:41;;;;;;;4.70;1.92;;;;;;;24.63;100.00;94235.41;4984950;28;20035;-87
2022/06/22 06:17:13;;;;;;;14.57;2.40;;;;;;;24.25;91.91;94233.31;5000825;28;20026;-85
2022/06/22 06:19:42;;;;;;;6.65;2.55;;;;;;;23.28;100.00;94241.16;5000432;28;20084;-86
2022/06/22 06:22:09;;;;;;;9.90;2.40;;;;;;;23.26;93.18;94235.38;5000093;28;20332;-86
2022/06/22 06:27:34;;;;;;;9.52;2.70;;;;;;;22.53;98.99;94250.97;5000261;28;20173;-86
2022/06/22 06:27:38;;;;;;;6.38;2.10;;;;;;;22.34;100.00;94247.06;4997113;28;20037;-87
2022/06/22 06:30:18;;;;;;;8.10;2.75;;;;;;;23.53;100.00;94248.88;5000226;28;20033;-87
2022/06/22 06:32:57;;;;;;;7.50;2.35;;;;;;;23.66;100.00;94254.06;5000326;28;20026;-87
2022/06/22 06:35:35;;;;;;;9.55;2.80;;;;;;;23.48;100.00;94259.09;5017689;28;20030;-86
2022/06/22 06:38:35;;;;;;;9.93;2.60;;;;;;;21.89;100.00;94259.72;5000156;28;20434;-86
2022/06/22 06:41:04;;;;;;;15.43;2.63;;;;;;;21.17;100.00;94258.53;4996012;28;20042;-86
2022/06/22 06:43:36;;;;;;;8.07;2.58;;;;;;;22.15;100.00;94269.09;5017417;28;20112;-85
2022/06/22 06:46:03;;;;;;;5.45;2.70;;;;;;;22.59;100.00;94265.59;5000104;28;20030;-86
2022/06/22 06:48:30;;;;;;;14.65;2.45;;;;;;;21.84;100.00;94274.06;4983788;28;20033;-86
2022/06/22 06:50:59;;;;;;;5.30;2.05;;;;;;;22.51;100.00;94287.91;4999851;28;20347;-85
2022/06/22 06:53:29;;;;;;;7.53;3.00;;;;;;;22.73;100.00;94289.16;4983837;28;20430;-85
2022/06/22 06:55:57;;;;;;;6.82;2.53;;;;;;;22.53;100.00;94286.44;4999644;28;20041;-85
2022/06/22 06:58:31;;;;;;;9.25;2.58;;;;;;;23.06;100.00;94285.31;4999853;28;20105;-85
2022/06/22 07:00:57;;;;;;;6.47;2.78;;;;;;;23.21;100.00;94285.63;5017152;28;20034;-86
2022/06/22 07:03:30;;;;;;;12.00;3.30;;;;;;;22.64;100.00;94289.34;4999594;28;20038;-85
2022/06/22 07:05:55;;;;;;;9.35;3.00;;;;;;;23.26;100.00;94298.72;4983745;28;20030;-85
2022/06/22 07:08:26;;;;;;;8.98;2.60;;;;;;;23.65;100.00;94293.41;5017109;28;20026;-86
2022/06/22 07:11:02;;;;;;;7.95;1.88;;;;;;;23.99;90.44;94300.91;4985031;28;20088;-85
2022/06/22 07:13:43;;;;;;;4.93;2.10;;;;;;;24.61;86.13;94315.34;4980152;28;20041;-85
2022/06/22 07:16:14;;;;;;;8.13;2.13;;;;;;;24.80;100.00;94314.50;4980263;28;20080;-85
2022/06/22 07:18:43;;;;;;;4.90;2.33;;;;;;;23.28;100.00;94307.97;4980107;28;20034;-85
2022/06/22 07:21:37;;;;;;;10.45;2.53;;;;;;;24.03;100.00;94309.00;4979917;28;20427;-85
2022/06/22 07:24:27;;;;;;;5.53;2.08;;;;;;;24.88;100.00;94320.72;4965613;28;20180;-85
2022/06/22 07:27:04;;;;;;;10.63;2.03;;;;;;;25.24;80.64;94326.63;4983435;28;20061;-85
2022/06/22 07:29:42;;;;;;;9.13;2.55;;;;;;;23.71;100.00;94313.38;4996039;28;20439;-85
2022/06/22 07:32:29;;;;;;;8.43;2.17;;;;;;;24.49;100.00;94316.28;4980033;28;20031;-85
2022/06/22 07:35:14;;;;;;;6.25;2.25;;;;;;;23.94;100.00;94312.66;4964011;28;20049;-85
2022/06/22 07:37:45;;;;;;;8.32;2.60;;;;;;;23.99;100.00;94303.59;4963422;28;20129;-85
2022/06/22 07:40:18;;;;;;;8.13;2.10;;;;;;;25.17;100.00;94300.47;4979668;28;20408;-86
2022/06/22 07:42:46;;;;;;;8.43;2.45;;;;;;;25.88;98.99;94303.66;4964930;28;20034;-84
2022/06/22 07:45:17;;;;;;;9.57;1.83;;;;;;;26.20;86.46;94301.31;4997071;28;20479;-86
2022/06/22 07:48:19;;;;;;;12.77;2.30;;;;;;;25.77;93.40;94301.63;4979746;28;20030;-85
2022/06/22 07:50:51;;;;;;;11.95;2.58;;;;;;;26.92;89.95;94298.44;4926411;29;20031;-85
2022/06/22 07:53:18;;;;;;;4.90;2.03;;;;;;;27.47;91.39;94285.25;4990197;28;20091;-85
2022/06/22 07:56:05;;;;;;;5.55;2.25;;;;;;;27.24;92.74;94297.84;4998732;28;20438;-84
2022/06/22 07:58:41;;;;;;;8.30;2.38;;;;;;;25.59;84.31;94298.72;5016379;28;20037;-85
2022/06/22 08:01:11;;;;;;;9.50;2.20;;;;;;;25.61;94.23;94295.69;4999329;28;20113;-87
2022/06/22 08:03:59;;;;;;;6.47;1.85;;;;;;;26.46;81.56;94298.84;4982972;28;20032;-87
2022/06/22 08:06:55;;;;;;;7.28;2.13;;;;;;;26.50;83.24;94297.72;4995156;28;20049;-83
2022/06/22 08:09:25;;;;;;;10.32;2.17;;;;;;;24.99;88.08;94292.19;4979542;28;20030;-83
2022/06/22 08:11:56;;;;;;;6.07;2.25;;;;;;;26.41;83.67;94291.91;4995204;28;20370;-86
2022/06/22 08:14:40;;;;;;;6.60;2.45;;;;;;;26.38;89.37;94293.41;4995365;28;20034;-84
2022/06/22 08:17:07;;;;;;;;;;;;;;;24.77;100.00;94288.44;4996082;28;20076;-86
2022/06/22 08:19:33;;;;;;;10.20;2.45;;;;;;;25.07;100.00;94290.38;4995345;28;19917;-84
2022/06/22 08:22:04;;;;;;;7.97;2.40;;;;;;;26.31;95.96;94293.34;4995391;28;20030;-84
2022/06/22 08:24:32;;;;;;;6.10;1.88;;;;;;;26.85;91.86;94293.00;4979677;28;20061;-87
2022/06/22 08:26:59;;;;;;;10.18;2.25;;;;;;;24.73;94.01;94296.38;4995717;28;20030;-86
2022/06/22 08:29:27;;;;;;;5.82;2.22;;;;;;;24.09;100.00;94281.59;4998542;28;20033;-87
2022/06/22 08:32:41;;;;;;;5.10;1.90;;;;;;;24.43;100.00;94281.00;4998565;28;20328;-84
2022/06/22 08:35:27;;;;;;;5.15;2.15;;;;;;;25.32;91.92;94281.91;4976610;28;20397;-84
2022/06/22 08:38:07;;;;;;;7.95;2.20;;;;;;;25.21;100.00;94281.78;4998481;28;20072;-86
2022/06/22 08:40:45;;;;;;;5.35;1.90;;;;;;;24.59;100.00;94280.88;4979771;28;20101;-87
2022/06/22 08:43:41;;;;;;;7.43;2.50;;;;;;;25.43;100.00;94285.50;4979185;28;20355;-86
2022/06/22 08:46:22;;;;;;;6.15;2.30;;;;;;;25.32;85.62;94288.06;4965524;28;20045;-86
2022/06/22 08:49:10;;;;;;;9.73;2.20;;;;;;;25.61;78.84;94293.00;4997574;28;20030;-84
2022/06/22 08:51:57;;;;;;;19.15;2.97;;;;;;;24.81;100.00;94294.59;4993067;28;20095;-86
2022/06/22 08:54:59;;;;;;;10.48;2.28;;;;;;;24.53;100.00;94290.34;5019503;28;20026;-84
2022/06/22 08:57:44;;;;;;;8.05;2.70;;;;;;;25.71;100.00;94270.91;5001907;28;20091;-84
2022/06/22 09:00:12;;;;;;;7.60;2.15;;;;;;;24.42;100.00;94261.50;5001931;28;20052;-84
2022/06/22 09:03:09;;;;;;;10.65;2.90;;;;;;;24.98;100.00;94258.50;5019125;28;20036;-86
2022/06/22 09:06:15;;;;;;;5.18;2.35;;;;;;;25.76;100.00;94262.50;5019259;28;20108;-85
2022/06/22 09:08:52;;;;;;;5.50;2.20;;;;;;;26.31;97.94;94261.13;5019067;28;20032;-87
2022/06/22 09:11:42;;;;;;;15.30;3.17;;;;;;;26.30;100.00;94272.22;5001724;28;20430;-86
2022/06/22 09:14:29;;;;;;;5.60;2.08;;;;;;;27.23;72.72;94279.41;5019152;28;20026;-86
2022/06/22 09:17:00;;;;;;;11.48;2.20;;;;;;;27.54;61.98;94279.16;5019062;28;20036;-83
2022/06/22 09:19:52;;;;;;;8.75;2.15;;;;;;;27.78;62.33;94281.19;5018347;28;20346;-84
2022/06/22 09:22:19;;;;;;;6.85;2.00;;;;;;;27.94;65.50;94286.22;5001675;28;20308;-86
2022/06/22 09:24:58;;;;;;;12.45;2.67;;;;;;;27.97;61.40;94298.13;5001045;28;20042;-85
2022/06/22 09:27:27;;;;;;;6.25;1.95;;;;;;;28.56;59.56;94297.09;5001349;28;20030;-85
2022/06/22 09:30:26;;;;;;;5.63;2.50;;;;;;;28.02;56.07;94305.84;4985105;28;20041;-86
2022/06/22 09:33:23;;;;;;;7.97;2.35;;;;;;;28.82;56.12;94300.56;4997644;28;20717;-86
2022/06/22 09:36:00;;;;;;;9.30;2.00;;;;;;;28.89;52.35;94305.94;4971409;28;20512;-85
2022/06/22 09:38:38;;;;;;;10.57;2.60;;;;;;;28.74;53.64;94309.78;5001126;28;20315;-87
2022/06/22 09:41:30;;;;;;;6.35;2.42;;;;;;;28.85;56.16;94307.09;5000925;28;20037;-86
2022/06/22 09:44:15;;;;;;;6.47;2.60;;;;;;;28.84;59.86;94325.22;5018504;28;20036;-86
2022/06/22 09:46:49;;;;;;;5.22;2.22;;;;;;;29.43;51.74;94332.06;5018173;28;20041;-86
2022/06/22 09:49:20;;;;;;;6.18;2.10;;;;;;;29.54;51.37;94337.44;5018113;28;20033;-86
2022/06/22 09:52:07;;;;;;;9.10;2.28;;;;;;;28.83;52.95;94333.69;5001197;28;20434;-86
2022/06/22 09:57:41;;;;;;;9.68;2.17;;;;;;;29.56;52.20;94316.22;5018306;28;20084;-85
2022/06/22 10:00:11;;;;;;;9.23;2.10;;;;;;;29.05;59.38;94304.75;5017729;28;20030;-86
2022/06/22 10:03:18;;;;;;;9.52;2.58;;;;;;;29.20;55.68;94297.44;4984592;28;20041;-86
2022/06/22 10:06:07;;;;;;;12.68;2.63;;;;;;;29.29;56.82;94288.91;4957615;29;20372;-85
2022/06/22 10:08:39;;;;;;;4.50;2.28;;;;;;;29.79;60.69;94289.88;4941590;29;20027;-85
2022/06/22 10:11:20;;;;;;;8.60;2.17;;;;;;;29.56;56.52;94283.06;4966573;28;20049;-86
2022/06/22 10:14:31;;;;;;;6.65;2.63;;;;;;;28.70;56.32;94255.88;5018178;28;20116;-85
2022/06/22 10:17:21;;;;;;;7.20;2.40;;;;;;;29.16;61.40;94262.38;5003099;28;20124;-86
2022/06/22 10:19:49;;;;;;;8.98;2.40;;;;;;;28.39;54.80;94260.91;5000884;28;20041;-87
2022/06/22 10:22:45;;;;;;;16.55;2.42;;;;;;;28.73;54.75;94263.19;5017720;28;20393;-86
2022/06/22 10:25:16;;;;;;;5.72;2.10;;;;;;;28.79;55.81;94260.88;5017687;28;20057;-87
2022/06/22 10:27:51;;;;;;;6.75;2.67;;;;;;;27.86;61.69;94270.44;5017672;28;20081;-85
2022/06/22 10:30:34;;;;;;;11.77;2.42;;;;;;;28.84;64.56;94270.53;4987743;28;20513;-85
2022/06/22 10:33:15;;;;;;;7.28;2.60;;;;;;;28.85;67.44;94283.63;4980997;28;20075;-85
2022/06/22 10:35:57;;;;;;;7.05;2.38;;;;;;;29.54;60.96;94278.06;5010393;28;20033;-87
2022/06/22 10:38:29;;;;;;;8.32;2.50;;;;;;;29.66;63.32;94289.56;5017631;28;20311;-85
2022/06/22 10:47:48;;;;;;;13.05;2.72;;;;;;;27.86;63.98;94276.59;5036940;28;20048;-84
2022/06/22 10:50:37;;;;;;;13.77;3.20;;;;;;;27.58;69.88;94277.28;5015159;28;20041;-87
2022/06/22 10:53:05;;;;;;;11.75;2.40;;;;;;;27.87;65.96;94282.75;4984193;28;20022;-85
2022/06/22 10:55:53;;;;;;;9.35;2.55;;;;;;;29.20;63.76;94281.25;5000062;28;20124;-86
2022/06/22 10:58:46;;;;;;;8.00;2.20;;;;;;;29.66;60.24;94279.53;4999987;28;20034;-86
2022/06/22 11:01:18;;;;;;;9.10;2.33;;;;;;;30.06;57.96;94282.06;4999774;28;20431;-85
2022/06/22 11:03:43;;;;;;;6.57;2.65;;;;;;;29.45;59.53;94286.56;5017223;28;20022;-85
2022/06/22 11:06:14;;;;;;;14.93;2.80;;;;;;;29.87;57.10;94280.59;4999903;28;20132;-85
2022/06/22 11:08:58;;;;;;;6.30;1.92;;;;;;;29.89;59.28;94291.78;5017019;28;20084;-86
2022/06/22 11:11:27;;;;;;;6.00;2.40;;;;;;;30.01;55.41;94294.03;5016355;28;20025;-85
2022/06/22 11:14:14;;;;;;;7.88;2.30;;;;;;;30.80;54.20;94294.63;5017128;28;20049;-86
2022/06/22 11:16:48;;;;;;;9.15;2.53;;;;;;;29.35;56.74;94304.31;5017032;28;20462;-86
2022/06/22 11:19:26;;;;;;;8.45;2.50;;;;;;;29.38;56.02;94307.38;4999829;28;20029;-86
2022/06/22 11:21:51;;;;;;;15.05;2.50;;;;;;;30.05;56.22;94311.00;5017038;28;20026;-86
2022/06/22 11:24:42;;;;;;;6.88;2.63;;;;;;;29.61;57.70;94305.00;5016966;28;20033;-86
2022/06/22 11:33:11;;;;;;;7.88;2.22;;;;;;;29.06;65.44;94309.78;5001971;28;20033;-86
2022/06/22 11:36:19;;;;;;;8.63;2.35;;;;;;;27.90;78.29;94311.59;5016889;28;20346;-86
2022/06/22 11:39:06;;;;;;;7.45;2.85;;;;;;;27.85;77.25;94306.59;4967246;28;20136;-87
2022/06/22 11:41:56;;;;;;;8.27;2.33;;;;;;;27.74;82.92;94307.31;5016774;28;20033;-86
2022/06/22 11:44:40;;;;;;;8.43;2.50;;;;;;;28.06;87.54;94300.47;4999401;28;20121;-87
2022/06/22 11:47:12;;;;;;;6.40;2.20;;;;;;;28.20;81.40;94314.00;5016763;28;20033;-87
2022/06/22 11:49:52;;;;;;;14.23;3.08;;;;;;;29.61;61.77;94312.34;4999491;28;20032;-86
2022/06/22 11:52:47;;;;;;;8.07;2.15;;;;;;;30.37;81.02;94309.25;4999395;28;20390;-87
2022/06/22 11:55:27;;;;;;;10.73;2.80;;;;;;;30.32;76.44;94318.56;5002733;28;20041;-86
2022/06/22 11:57:58;;;;;;;9.05;2.58;;;;;;;30.84;58.16;94319.72;4998972;28;20042;-86
2022/06/22 12:00:57;;;;;;;6.50;2.20;;;;;;;31.35;58.53;94319.25;5016618;28;20433;-86
2022/06/22 12:03:47;;;;;;;6.45;2.10;;;;;;;30.55;63.60;94322.63;5016489;28;20072;-86
2022/06/22 12:06:29;;;;;;;11.20;2.72;;;;;;;30.28;59.42;94312.41;5016626;28;20029;-86
2022/06/22 12:09:17;;;;;;;4.68;1.88;;;;;;;31.62;57.06;94310.44;4999174;28;20038;-86
2022/06/22 12:12:00;;;;;;;8.20;2.70;;;;;;;29.71;60.92;94297.25;4999297;28;20088;-86
2022/06/22 12:15:08;;;;;;;9.20;2.40;;;;;;;29.31;69.78;94292.00;4999162;28;20033;-86
2022/06/22 12:17:58;;;;;;;11.65;2.53;;;;;;;29.31;53.57;94290.03;4985241;28;20036;-86
2022/06/22 12:21:04;;;;;;;6.32;2.30;;;;;;;30.20;58.53;94289.28;5016384;28;20453;-87
2022/06/22 12:23:55;;;;;;;10.75;2.50;;;;;;;30.33;53.02;94298.47;5019203;28;20034;-87
2022/06/22 12:27:05;;;;;;;7.07;1.90;;;;;;;29.72;51.42;94294.19;5020252;28;20022;-87
2022/06/22 12:29:42;;;;;;;5.13;2.30;;;;;;;29.85;50.44;94291.03;5006791;28;20038;-86
2022/06/22 12:32:19;;;;;;;4.63;2.20;;;;;;;31.68;51.74;94297.97;5002748;28;20033;-86
2022/06/22 12:35:04;;;;;;;8.65;2.35;;;;;;;32.37;48.59;94293.63;5002613;28;20022;-87
2022/06/22 12:37:36;;;;;;;9.55;2.55;;;;;;;30.87;49.45;94294.59;5002570;28;20037;-86
2022/06/22 12:40:11;;;;;;;8.33;2.93;;;;;;;31.20;50.72;94285.38;5002368;28;20049;-87
2022/06/22 12:43:13;;;;;;;6.78;2.25;;;;;;;32.22;48.58;94279.50;4986599;28;20026;-86
2022/06/22 12:45:53;;;;;;;9.30;3.10;;;;;;;30.89;55.68;94273.31;4985628;28;20421;-87
2022/06/22 12:48:42;;;;;;;7.53;2.50;;;;;;;32.27;50.45;94270.91;4986156;28;20036;-86
2022/06/22 12:51:32;;;;;;;13.30;2.42;;;;;;;30.81;54.36;94266.44;5002050;28;20435;-87
2022/06/22 12:54:15;;;;;;;7.03;2.30;;;;;;;31.70;52.88;94267.81;4990897;28;20441;-86
2022/06/22 12:57:03;;;;;;;10.00;2.80;;;;;;;31.44;54.10;94270.84;4982486;28;20399;-86
2022/06/22 12:59:51;;;;;;;9.40;3.08;;;;;;;30.96;54.88;94261.66;4982508;28;20022;-86
2022/06/22 13:02:19;;;;;;;8.35;3.13;;;;;;;30.08;57.26;94254.66;4993796;28;20038;-87
2022/06/22 13:04:58;;;;;;;8.57;3.25;;;;;;;29.58;62.22;94253.75;5001806;28;20040;-86
2022/06/22 13:07:24;;;;;;;18.45;10.70;;;;;;;28.90;67.16;94240.09;4983157;28;20037;-86
2022/06/22 13:09:49;;;;;;;6.65;2.35;;;;;;;29.18;100.00;94254.66;5001711;28;20026;-85
2022/06/22 13:12:21;;;;;;;9.55;2.72;;;;;;;29.19;97.66;94256.19;5001561;28;20124;-86
2022/06/22 13:14:58;;;;;;;8.63;2.88;;;;;;;28.87;100.00;94259.75;5001447;28;20021;-86
2022/06/22 13:17:29;;;;;;;6.10;2.42;;;;;;;29.01;91.20;94256.22;5001680;28;20457;-85
2022/06/22 13:20:16;;;;;;;11.13;2.97;;;;;;;29.14;81.19;94263.91;5001672;28;20439;-85
2022/06/22 13:23:01;;;;;;;13.77;2.97;;;;;;;29.19;79.99;94271.59;5001665;28;20462;-86
2022/06/22 13:25:44;;;;;;;11.00;3.00;;;;;;;29.15;68.18;94274.31;5019077;28;20083;-86
2022/06/22 13:28:44;;;;;;;11.07;3.20;;;;;;;28.50;75.33;94275.16;5001538;28;20025;-85
2022/06/22 13:31:15;;;;;;;16.92;3.38;;;;;;;28.01;93.20;94272.00;5001495;28;20378;-86
2022/06/22 13:33:56;;;;;;;6.28;3.00;;;;;;;28.92;100.00;94270.13;5000989;28;20022;-86
2022/06/22 13:36:40;;;;;;;9.80;3.15;;;;;;;28.89;100.00;94270.13;5000795;28;20033;-85
2022/06/22 13:39:13;;;;;;;7.63;3.05;;;;;;;29.09;100.00;94267.75;4999058;28;20022;-86